TimeCST,TemperatureF,Dew PointF,Humidity,Sea Level PressureIn,VisibilityMPH,Wind Direction,Wind SpeedMPH,Gust SpeedMPH,PrecipitationIn,Events,Conditions,WindDirDegrees,DateUTC
12:52 AM,51.1,25.0,36,30.30,10.0,North,4.6,-,N/A,,Clear,350,2013-03-06 06:52:00
1:52 AM,46.9,27.0,46,30.30,10.0,North,4.6,-,N/A,,Clear,350,2013-03-06 07:52:00
2:52 AM,44.1,30.0,58,30.29,10.0,NNW,6.9,-,N/A,,Clear,340,2013-03-06 08:52:00
3:52 AM,44.1,28.0,53,30.29,10.0,NNW,6.9,-,N/A,,Clear,340,2013-03-06 09:52:00
4:52 AM,42.1,28.9,60,30.31,10.0,NW,6.9,-,N/A,,Clear,320,2013-03-06 10:52:00
5:52 AM,41.0,28.9,62,30.33,10.0,NNW,6.9,-,N/A,,Clear,340,2013-03-06 11:52:00
6:52 AM,43.0,30.0,60,30.34,10.0,North,8.1,-,N/A,,Clear,360,2013-03-06 12:52:00
7:52 AM,50.0,30.9,48,30.36,10.0,North,11.5,-,N/A,,Clear,360,2013-03-06 13:52:00
8:24 AM,53.6,33.8,47,30.36,10.0,North,11.5,-,N/A,,Clear,10,2013-03-06 14:24:00
8:52 AM,57.9,35.1,42,30.36,10.0,North,12.7,-,N/A,,Clear,360,2013-03-06 14:52:00
9:52 AM,64.0,41.0,43,30.37,10.0,North,13.8,-,N/A,,Clear,10,2013-03-06 15:52:00
10:52 AM,66.9,43.0,42,30.36,10.0,NE,10.4,20.7,N/A,,Clear,50,2013-03-06 16:52:00
11:22 AM,68.0,42.8,40,30.36,10.0,NE,11.5,20.7,N/A,,Clear,40,2013-03-06 17:22:00
11:52 AM,70.0,41.0,35,30.35,10.0,NE,9.2,-,N/A,,Clear,50,2013-03-06 17:52:00
12:52 PM,70.0,42.1,36,30.32,10.0,East,10.4,-,N/A,,Clear,80,2013-03-06 18:52:00
1:52 PM,70.0,43.0,38,30.29,10.0,ENE,8.1,-,N/A,,Clear,70,2013-03-06 19:52:00
2:52 PM,70.0,43.0,38,30.26,10.0,East,5.8,-,N/A,,Clear,90,2013-03-06 20:52:00
3:52 PM,71.1,45.0,39,30.24,10.0,ENE,11.5,19.6,N/A,,Clear,70,2013-03-06 21:52:00
4:52 PM,66.0,46.0,48,30.23,10.0,East,13.8,-,N/A,,Clear,100,2013-03-06 22:52:00
5:52 PM,63.0,46.0,54,30.23,10.0,East,11.5,-,N/A,,Clear,90,2013-03-06 23:52:00
6:52 PM,60.1,46.9,62,30.24,10.0,East,11.5,-,N/A,,Clear,90,2013-03-07 00:52:00
7:52 PM,55.9,46.0,69,30.23,10.0,East,6.9,-,N/A,,Clear,80,2013-03-07 01:52:00
8:52 PM,55.0,46.0,72,30.25,10.0,East,5.8,-,N/A,,Clear,80,2013-03-07 02:52:00
9:52 PM,55.0,46.0,72,30.25,10.0,East,3.5,-,N/A,,Clear,80,2013-03-07 03:52:00
10:52 PM,54.0,46.9,77,30.23,10.0,East,4.6,-,N/A,,Clear,80,2013-03-07 04:52:00
11:52 PM,52.0,46.0,80,30.21,10.0,East,3.5,-,N/A,,Clear,90,2013-03-07 05:52:00